Search for airport 
image banner adimage banner adimage banner ad
image banner ad

8PA9 - Sons Ii

Located in Lahaska, United States

ICAO - 8PA9, IATA -

Data provided by Airmate  

General information

Coordinates: N40°19'32" W74°59'29"
Elevation is 200 feet MSL.
Magnetic variation is -12° East
View others Airports in Pennsylvania

Operational data

Special qualification required
Current time UTC:
Current local time:
Weather at : KDYL - Doylestown ( 11 km )
METAR: KDYL 270354Z AUTO 00000KT 10SM CLR 22/17 A2996 RMK AO2 SLP138 T02170167
View NOTAMs / SUP AIP / TFR affecting this airport [VIEW]
Communications frequencies: [VIEW]

Runways:

Airport contact information

Address: Lahaska United States

Satellite view of 8PA9